Whidbey Island Naval Air Station /Ault Field/ Airport
KNUW : now visible

Airfield :











YOU CAN JOIN US ON...

 
LOGIN :

Register | Disclaimer

   EN    FR    IT 

 









Legend :    VFR   Marginal VFR   IFR   Intensive IFR   Very Intensive IFR
Visi :
Ceiling :
>= 8 km
>= 3000ft
5 to 8 km
1000 to 3000 ft
1500m to 5 km
500 to 1000 ft
800 to 1500m
200 to 500 ft
< 800m
< 200 ft
Symbols :   Thunderstorms  Fog  Heavy snow  Heavy precipitations  Wind > 20 kt






- Airport Elevation : 47 ft


KNUW - Whidbey Island Naval Air Station /Ault Field/

CURRENT METAR :
  • 181556Z 13026G36KT 10SM SCT025 BKN085 OVC120 07/02 A3003 RMK AO2 PK WND 13036/1533 SLP169 T00670017 $

EXPIRED METARs :
  • 181456Z 13022G32KT 10SM FEW025 SCT110 BKN150 BKN220 06/02 A3003 RMK AO2 PK WND 14040/1357 SLP167 60000 T00610017 55002 $
  • 181356Z 14029G41KT 10SM FEW023 SCT090 BKN140 BKN220 06/01 A3001 RMK AO2 PK WND 13041/1348 SLP162 T00610011 $

TAF TAF KNUW
Valid from the 18 at 15:00 until the 19 at 15:00 UTC


1815/1915 14024G34KT 9999 -RA SCT010 BKN025 OVC080 640309 641205 530003 550306 QNH2999INS
TEMPO 1815/1819 13028G40KT 9999 BKN030
FM181900 13020G30KT 9999 VCSH SCT015 BKN030 OVC080 640509 641402 520003 540306 QNH3003INS
TEMPO 1823/1905 13014G20KT
FM190600 13018G24KT 9999 SCT020 SCT050 BKN080 640509 641402 520003 540306 QNH3003INS
TEMPO 1906/1912 BKN020 BKN050 T11/1822Z T06/1912Z FS30137



MET'MAP, your aeronautical weather chart ! - Copyright ORBIFLY December 2007 - Disclaimer

ORBIFLY MET'MAP TEAM :

Programming & Development : Alexandra Zaïnal
Concept & original design : Baudouin d'Aumeries
Assistance for programming : Marc-Olivier Méhu
Technical & hardware support : Manuel Goepfert

Contact : metmap@orbifly.com




SOURCES & CREDITS :

   NOAA       Earth
Advisory